Main page
METAR-TAF:

METAR-TAF

Airports :

Townsville Airport

Townsville, Australia

latitude: 19-15S, longitude: 146-45E, elevation: 6 m

Current weather observation

The report was made 40 minutes ago, at 06:30 UTC
Wind 7 kt from the North
Temperature 23°C
Humidity 73%
Pressure 1012 hPa
Visibility 10 km or more

METAR: YBTL 150630Z AUTO 35007KT 9999 // NCD 23/18 Q1012 RF00.0/000.0

Time: 17:10 (07:10 UTC)

Forecast

The report was made 1 hour and 55 minutes ago, at 05:15 UTC
Forecast valid from 15 at 06 UTC to 16 at 06 UTC
Wind 10 kt from the North
Visibility 10 km or more
Few clouds at a height of 3000 ft
From 15 at 1200 UTC
Wind 5 kt from the West/Southwest
Visibility 10 km or more
Scattered clouds at a height of 1500 ft
From 15 at 2300 UTC
Wind 10 kt from the South
Visibility 10 km or more
no clouds below 1500 m and no cumulonimbus

TAF: YBTL 150515Z 1506/1606 35010KT 9999 FEW030 FM151200 24005KT 9999 SCT015 FM152300 18010KT CAVOK

Weather observations and forecasts of more than 4000 airports (METAR and TAF reports).

The available stations are represented by yellow and red dots on the map.

Hover mouse over dot to see the name of the station.

Then click to see weather observations and forecasts.

To change the map : click on the green buttons with a black cross to zoom in, on the green button with a dash to zoom out, or on the green arrows for adjacent maps.


METAR-TAF: